sensor_id;sensor_type;location;lat;lon;timestamp;pressure;altitude;pressure_sealevel;temperature;humidity
56074;BME280;41950;55.840;37.442;2023-01-29T00:02:21;99861.81;;;-2.62;76.53
56074;BME280;41950;55.840;37.442;2023-01-29T00:04:47;99842.44;;;-2.81;76.73
56074;BME280;41950;55.840;37.442;2023-01-29T00:07:12;99830.31;;;-2.88;76.77
56074;BME280;41950;55.840;37.442;2023-01-29T00:09:38;99858.78;;;-2.74;76.59
56074;BME280;41950;55.840;37.442;2023-01-29T00:12:04;99862.44;;;-2.68;76.58
56074;BME280;41950;55.840;37.442;2023-01-29T00:14:31;99816.66;;;-2.92;76.22
56074;BME280;41950;55.840;37.442;2023-01-29T00:16:57;99818.59;;;-2.85;75.94
56074;BME280;41950;55.840;37.442;2023-01-29T00:19:22;99856.25;;;-2.52;75.54
56074;BME280;41950;55.840;37.442;2023-01-29T00:21:48;99809.44;;;-2.81;75.15
56074;BME280;41950;55.840;37.442;2023-01-29T00:24:14;99842.50;;;-2.57;74.77
56074;BME280;41950;55.840;37.442;2023-01-29T00:26:39;99854.28;;;-2.59;74.34
56074;BME280;41950;55.840;37.442;2023-01-29T00:29:06;99844.34;;;-2.53;74.55
56074;BME280;41950;55.840;37.442;2023-01-29T00:31:32;99823.00;;;-2.58;74.32
56074;BME280;41950;55.840;37.442;2023-01-29T00:33:58;99843.81;;;-2.46;74.39
56074;BME280;41950;55.840;37.442;2023-01-29T00:36:24;99848.94;;;-2.44;74.02
56074;BME280;41950;55.840;37.442;2023-01-29T00:38:55;99841.38;;;-2.43;73.91
56074;BME280;41950;55.840;37.442;2023-01-29T00:41:26;99837.16;;;-2.42;73.92
56074;BME280;41950;55.840;37.442;2023-01-29T00:44:11;99831.19;;;-2.43;73.86
56074;BME280;41950;55.840;37.442;2023-01-29T00:46:55;99813.22;;;-2.47;73.56
56074;BME280;41950;55.840;37.442;2023-01-29T00:49:21;99829.53;;;-2.42;73.43
56074;BME280;41950;55.840;37.442;2023-01-29T00:51:47;99803.13;;;-2.46;73.29
56074;BME280;41950;55.840;37.442;2023-01-29T00:54:31;99788.66;;;-2.47;73.19
56074;BME280;41950;55.840;37.442;2023-01-29T00:56:57;99796.66;;;-2.38;72.97
56074;BME280;41950;55.840;37.442;2023-01-29T00:59:22;99793.03;;;-2.44;72.78
56074;BME280;41950;55.840;37.442;2023-01-29T01:01:48;99817.19;;;-2.32;72.66
56074;BME280;41950;55.840;37.442;2023-01-29T01:04:32;99819.53;;;-2.38;72.29
56074;BME280;41950;55.840;37.442;2023-01-29T01:06:58;99812.66;;;-2.40;71.88
56074;BME280;41950;55.840;37.442;2023-01-29T01:09:23;99808.22;;;-2.46;72.11
56074;BME280;41950;55.840;37.442;2023-01-29T01:12:18;99799.09;;;-2.63;72.17
56074;BME280;41950;55.840;37.442;2023-01-29T01:14:44;99811.44;;;-2.50;72.21
56074;BME280;41950;55.840;37.442;2023-01-29T01:17:10;99816.34;;;-2.55;71.91
56074;BME280;41950;55.840;37.442;2023-01-29T01:19:35;99770.56;;;-2.78;71.72
56074;BME280;41950;55.840;37.442;2023-01-29T01:22:01;99800.59;;;-2.68;71.71
56074;BME280;41950;55.840;37.442;2023-01-29T01:24:29;99829.06;;;-2.55;71.76
56074;BME280;41950;55.840;37.442;2023-01-29T01:26:55;99819.38;;;-2.65;71.34
56074;BME280;41950;55.840;37.442;2023-01-29T01:29:20;99806.66;;;-2.65;71.46
56074;BME280;41950;55.840;37.442;2023-01-29T01:31:46;99817.22;;;-2.54;71.62
56074;BME280;41950;55.840;37.442;2023-01-29T01:34:12;99785.13;;;-2.74;71.52
56074;BME280;41950;55.840;37.442;2023-01-29T01:36:37;99808.88;;;-2.50;71.35
56074;BME280;41950;55.840;37.442;2023-01-29T01:39:03;99791.47;;;-2.63;71.61
56074;BME280;41950;55.840;37.442;2023-01-29T01:41:29;99809.94;;;-2.45;71.65
56074;BME280;41950;55.840;37.442;2023-01-29T01:44:00;99807.34;;;-2.46;71.63
56074;BME280;41950;55.840;37.442;2023-01-29T01:46:34;99807.22;;;-2.50;71.26
56074;BME280;41950;55.840;37.442;2023-01-29T01:49:07;99791.59;;;-2.60;71.37
56074;BME280;41950;55.840;37.442;2023-01-29T01:51:39;99778.44;;;-2.72;71.48
56074;BME280;41950;55.840;37.442;2023-01-29T01:54:13;99788.03;;;-2.65;71.49
56074;BME280;41950;55.840;37.442;2023-01-29T01:56:44;99793.31;;;-2.59;71.72
56074;BME280;41950;55.840;37.442;2023-01-29T01:59:16;99785.47;;;-2.65;71.24
56074;BME280;41950;55.840;37.442;2023-01-29T02:01:46;99782.00;;;-2.67;71.33
56074;BME280;41950;55.840;37.442;2023-01-29T02:04:20;99772.81;;;-2.64;71.32
56074;BME280;41950;55.840;37.442;2023-01-29T02:07:07;99718.44;;;-2.93;71.35
56074;BME280;41950;55.840;37.442;2023-01-29T02:09:55;99768.63;;;-2.63;71.54
56074;BME280;41950;55.840;37.442;2023-01-29T02:12:24;99768.66;;;-2.62;71.56
56074;BME280;41950;55.840;37.442;2023-01-29T02:14:50;99760.84;;;-2.68;71.37
56074;BME280;41950;55.840;37.442;2023-01-29T02:17:18;99757.94;;;-2.77;71.43
56074;BME280;41950;55.840;37.442;2023-01-29T02:30:33;99747.78;;;-2.77;71.60
56074;BME280;41950;55.840;37.442;2023-01-29T02:33:04;99743.41;;;-2.81;72.02
56074;BME280;41950;55.840;37.442;2023-01-29T02:35:44;99736.75;;;-2.77;71.91
56074;BME280;41950;55.840;37.442;2023-01-29T02:38:19;99738.38;;;-2.80;71.82
56074;BME280;41950;55.840;37.442;2023-01-29T02:40:55;99734.81;;;-2.85;72.09
56074;BME280;41950;55.840;37.442;2023-01-29T02:48:54;99721.19;;;-2.87;72.52
56074;BME280;41950;55.840;37.442;2023-01-29T02:54:09;99686.56;;;-3.07;72.70
56074;BME280;41950;55.840;37.442;2023-01-29T02:56:55;99701.50;;;-2.92;72.78
56074;BME280;41950;55.840;37.442;2023-01-29T02:59:54;99710.00;;;-2.92;72.99
56074;BME280;41950;55.840;37.442;2023-01-29T03:02:36;99699.69;;;-2.96;73.01
56074;BME280;41950;55.840;37.442;2023-01-29T03:05:09;99681.75;;;-3.01;73.00
56074;BME280;41950;55.840;37.442;2023-01-29T03:07:38;99690.34;;;-2.97;72.91
56074;BME280;41950;55.840;37.442;2023-01-29T03:10:22;99695.47;;;-2.96;72.68
56074;BME280;41950;55.840;37.442;2023-01-29T03:13:18;99679.44;;;-3.17;72.77
56074;BME280;41950;55.840;37.442;2023-01-29T03:15:46;99686.69;;;-3.04;73.10
56074;BME280;41950;55.840;37.442;2023-01-29T03:18:22;99680.13;;;-2.99;73.07
56074;BME280;41950;55.840;37.442;2023-01-29T03:21:09;99658.75;;;-3.04;73.02
56074;BME280;41950;55.840;37.442;2023-01-29T03:23:56;99662.47;;;-2.96;72.87
56074;BME280;41950;55.840;37.442;2023-01-29T03:26:42;99652.00;;;-3.03;72.96
56074;BME280;41950;55.840;37.442;2023-01-29T03:29:30;99654.28;;;-2.87;72.87
56074;BME280;41950;55.840;37.442;2023-01-29T03:32:16;99632.69;;;-3.00;72.69
56074;BME280;41950;55.840;37.442;2023-01-29T03:34:49;99647.63;;;-2.84;72.43
56074;BME280;41950;55.840;37.442;2023-01-29T03:37:40;99651.03;;;-2.83;72.57
56074;BME280;41950;55.840;37.442;2023-01-29T03:40:09;99635.59;;;-2.89;72.67
56074;BME280;41950;55.840;37.442;2023-01-29T03:45:38;99642.50;;;-2.85;72.85
56074;BME280;41950;55.840;37.442;2023-01-29T03:56:11;99626.91;;;-2.72;72.62
56074;BME280;41950;55.840;37.442;2023-01-29T03:58:53;99626.84;;;-2.73;72.59
56074;BME280;41950;55.840;37.442;2023-01-29T04:01:27;99621.63;;;-2.76;72.70
56074;BME280;41950;55.840;37.442;2023-01-29T04:06:40;99609.75;;;-2.77;72.80
56074;BME280;41950;55.840;37.442;2023-01-29T04:09:20;99578.81;;;-2.91;72.62
56074;BME280;41950;55.840;37.442;2023-01-29T04:12:07;99614.72;;;-2.81;72.80
56074;BME280;41950;55.840;37.442;2023-01-29T04:14:33;99607.91;;;-2.82;72.89
56074;BME280;41950;55.840;37.442;2023-01-29T04:17:03;99611.28;;;-2.83;72.79
56074;BME280;41950;55.840;37.442;2023-01-29T04:19:33;99613.59;;;-2.89;72.85
56074;BME280;41950;55.840;37.442;2023-01-29T04:22:06;99603.41;;;-2.90;72.81
56074;BME280;41950;55.840;37.442;2023-01-29T04:24:36;99599.69;;;-3.00;73.09
56074;BME280;41950;55.840;37.442;2023-01-29T04:43:33;99598.00;;;-2.99;73.74
56074;BME280;41950;55.840;37.442;2023-01-29T04:46:26;99595.41;;;-3.01;73.79
56074;BME280;41950;55.840;37.442;2023-01-29T04:48:58;99592.69;;;-3.05;74.03
56074;BME280;41950;55.840;37.442;2023-01-29T04:51:49;99591.78;;;-3.07;74.00
56074;BME280;41950;55.840;37.442;2023-01-29T04:56:56;99574.16;;;-3.03;74.28
56074;BME280;41950;55.840;37.442;2023-01-29T04:59:32;99574.09;;;-3.04;74.14
56074;BME280;41950;55.840;37.442;2023-01-29T05:02:00;99590.56;;;-2.95;74.27
56074;BME280;41950;55.840;37.442;2023-01-29T05:04:29;99590.75;;;-2.89;74.28
56074;BME280;41950;55.840;37.442;2023-01-29T05:07:00;99561.06;;;-3.15;73.86
56074;BME280;41950;55.840;37.442;2023-01-29T05:09:27;99582.63;;;-3.02;74.11
56074;BME280;41950;55.840;37.442;2023-01-29T05:11:54;99578.44;;;-3.02;74.37
56074;BME280;41950;55.840;37.442;2023-01-29T05:14:20;99570.66;;;-3.06;74.37
56074;BME280;41950;55.840;37.442;2023-01-29T05:16:51;99577.66;;;-3.01;74.39
56074;BME280;41950;55.840;37.442;2023-01-29T05:19:17;99582.88;;;-2.96;74.43
56074;BME280;41950;55.840;37.442;2023-01-29T05:21:48;99579.59;;;-2.94;74.15
56074;BME280;41950;55.840;37.442;2023-01-29T05:24:20;99587.84;;;-2.99;74.13
56074;BME280;41950;55.840;37.442;2023-01-29T05:26:48;99587.50;;;-3.08;74.55
56074;BME280;41950;55.840;37.442;2023-01-29T05:29:32;99582.53;;;-3.05;74.65
56074;BME280;41950;55.840;37.442;2023-01-29T05:31:58;99576.69;;;-3.03;74.67
56074;BME280;41950;55.840;37.442;2023-01-29T05:34:24;99580.25;;;-2.99;74.47
56074;BME280;41950;55.840;37.442;2023-01-29T05:36:50;99586.22;;;-2.97;74.65
56074;BME280;41950;55.840;37.442;2023-01-29T05:39:16;99577.66;;;-3.01;74.56
56074;BME280;41950;55.840;37.442;2023-01-29T05:41:42;99582.63;;;-3.02;74.51
56074;BME280;41950;55.840;37.442;2023-01-29T05:44:09;99549.19;;;-3.16;74.63
56074;BME280;41950;55.840;37.442;2023-01-29T05:46:35;99578.56;;;-2.99;74.36
56074;BME280;41950;55.840;37.442;2023-01-29T05:49:01;99551.00;;;-3.12;74.58
56074;BME280;41950;55.840;37.442;2023-01-29T05:51:26;99582.88;;;-2.96;74.55
56074;BME280;41950;55.840;37.442;2023-01-29T05:53:52;99583.03;;;-2.92;74.64
56074;BME280;41950;55.840;37.442;2023-01-29T05:56:19;99585.56;;;-2.92;74.57
56074;BME280;41950;55.840;37.442;2023-01-29T05:58:45;99561.59;;;-3.00;74.58
56074;BME280;41950;55.840;37.442;2023-01-29T06:01:19;99575.63;;;-2.86;74.37
56074;BME280;41950;55.840;37.442;2023-01-29T06:03:45;99583.44;;;-2.80;74.47
56074;BME280;41950;55.840;37.442;2023-01-29T06:06:11;99568.75;;;-2.88;74.12
56074;BME280;41950;55.840;37.442;2023-01-29T06:08:37;99570.38;;;-2.90;74.26
56074;BME280;41950;55.840;37.442;2023-01-29T06:11:05;99541.06;;;-3.06;74.25
56074;BME280;41950;55.840;37.442;2023-01-29T06:13:31;99566.38;;;-2.84;74.21
56074;BME280;41950;55.840;37.442;2023-01-29T06:15:57;99549.25;;;-2.89;74.14
56074;BME280;41950;55.840;37.442;2023-01-29T06:18:22;99565.47;;;-2.86;74.15
56074;BME280;41950;55.840;37.442;2023-01-29T06:20:48;99554.28;;;-2.91;74.13
56074;BME280;41950;55.840;37.442;2023-01-29T06:23:13;99551.13;;;-2.84;74.24
56074;BME280;41950;55.840;37.442;2023-01-29T06:25:39;99528.19;;;-2.87;74.05
56074;BME280;41950;55.840;37.442;2023-01-29T06:28:05;99523.09;;;-2.87;73.98
56074;BME280;41950;55.840;37.442;2023-01-29T06:30:30;99549.72;;;-2.75;73.93
56074;BME280;41950;55.840;37.442;2023-01-29T06:32:57;99530.00;;;-2.83;73.89
56074;BME280;41950;55.840;37.442;2023-01-29T06:35:24;99543.38;;;-2.63;73.90
56074;BME280;41950;55.840;37.442;2023-01-29T06:37:50;99539.16;;;-2.62;73.64
56074;BME280;41950;55.840;37.442;2023-01-29T06:40:15;99540.22;;;-2.56;73.50
56074;BME280;41950;55.840;37.442;2023-01-29T06:42:41;99509.06;;;-2.75;72.89
56074;BME280;41950;55.840;37.442;2023-01-29T06:45:07;99517.78;;;-2.69;73.08
56074;BME280;41950;55.840;37.442;2023-01-29T06:47:33;99525.75;;;-2.58;73.04
56074;BME280;41950;55.840;37.442;2023-01-29T06:49:59;99519.88;;;-2.56;72.88
56074;BME280;41950;55.840;37.442;2023-01-29T06:52:25;99519.97;;;-2.53;72.82
56074;BME280;41950;55.840;37.442;2023-01-29T06:54:53;99490.94;;;-2.61;72.73
56074;BME280;41950;55.840;37.442;2023-01-29T06:57:19;99478.38;;;-2.56;72.44
56074;BME280;41950;55.840;37.442;2023-01-29T06:59:45;99513.72;;;-2.37;72.27
56074;BME280;41950;55.840;37.442;2023-01-29T07:02:11;99503.59;;;-2.35;72.30
56074;BME280;41950;55.840;37.442;2023-01-29T07:04:37;99483.84;;;-2.44;72.38
56074;BME280;41950;55.840;37.442;2023-01-29T07:07:04;99494.38;;;-2.32;72.10
56074;BME280;41950;55.840;37.442;2023-01-29T07:09:30;99503.09;;;-2.24;71.88
56074;BME280;41950;55.840;37.442;2023-01-29T07:11:55;99503.19;;;-2.21;71.69
56074;BME280;41950;55.840;37.442;2023-01-29T07:14:21;99476.50;;;-2.35;71.25
56074;BME280;41950;55.840;37.442;2023-01-29T07:16:47;99485.19;;;-2.28;70.79
56074;BME280;41950;55.840;37.442;2023-01-29T07:19:12;99460.16;;;-2.43;70.26
56074;BME280;41950;55.840;37.442;2023-01-29T07:21:38;99476.06;;;-2.22;70.42
56074;BME280;41950;55.840;37.442;2023-01-29T07:24:04;99481.44;;;-2.12;69.74
56074;BME280;41950;55.840;37.442;2023-01-29T07:26:30;99468.63;;;-2.15;69.50
56074;BME280;41950;55.840;37.442;2023-01-29T07:28:55;99455.91;;;-2.15;69.20
56074;BME280;41950;55.840;37.442;2023-01-29T07:31:21;99487.91;;;-1.94;68.66
56074;BME280;41950;55.840;37.442;2023-01-29T07:33:47;99485.59;;;-1.86;68.47
56074;BME280;41950;55.840;37.442;2023-01-29T07:36:13;99482.41;;;-1.79;68.01
56074;BME280;41950;55.840;37.442;2023-01-29T07:38:39;99472.28;;;-1.77;67.13
56074;BME280;41950;55.840;37.442;2023-01-29T07:41:04;99470.44;;;-1.83;66.89
56074;BME280;41950;55.840;37.442;2023-01-29T07:43:30;99416.16;;;-2.13;66.98
56074;BME280;41950;55.840;37.442;2023-01-29T07:46:00;99476.66;;;-1.72;66.40
56074;BME280;41950;55.840;37.442;2023-01-29T07:48:27;99464.81;;;-1.71;66.48
56074;BME280;41950;55.840;37.442;2023-01-29T07:50:54;99472.69;;;-1.64;66.14
56074;BME280;41950;55.840;37.442;2023-01-29T07:53:20;99459.75;;;-1.70;65.63
56074;BME280;41950;55.840;37.442;2023-01-29T07:55:46;99462.13;;;-1.76;65.35
56074;BME280;41950;55.840;37.442;2023-01-29T07:58:12;99460.34;;;-1.80;65.36
56074;BME280;41950;55.840;37.442;2023-01-29T08:00:38;99449.22;;;-1.83;65.02
56074;BME280;41950;55.840;37.442;2023-01-29T08:03:15;99466.63;;;-1.67;65.00
56074;BME280;41950;55.840;37.442;2023-01-29T08:05:42;99457.56;;;-1.58;65.15
56074;BME280;41950;55.840;37.442;2023-01-29T08:08:08;99454.22;;;-1.57;65.13
56074;BME280;41950;55.840;37.442;2023-01-29T08:10:35;99468.81;;;-1.49;64.82
56074;BME280;41950;55.840;37.442;2023-01-29T08:13:02;99452.72;;;-1.48;65.07
56074;BME280;41950;55.840;37.442;2023-01-29T08:15:29;99458.03;;;-1.39;64.67
56074;BME280;41950;55.840;37.442;2023-01-29T08:17:55;99421.09;;;-1.58;64.15
56074;BME280;41950;55.840;37.442;2023-01-29T08:20:21;99417.44;;;-1.66;64.52
56074;BME280;41950;55.840;37.442;2023-01-29T08:22:47;99450.22;;;-1.47;63.63
56074;BME280;41950;55.840;37.442;2023-01-29T08:25:13;99455.84;;;-1.59;64.02
56074;BME280;41950;55.840;37.442;2023-01-29T08:27:39;99460.34;;;-1.48;64.32
56074;BME280;41950;55.840;37.442;2023-01-29T08:30:06;99459.25;;;-1.58;63.96
56074;BME280;41950;55.840;37.442;2023-01-29T08:32:32;99432.34;;;-1.80;63.97
56074;BME280;41950;55.840;37.442;2023-01-29T08:34:57;99451.47;;;-1.64;64.27
56074;BME280;41950;55.840;37.442;2023-01-29T08:37:23;99441.44;;;-1.58;64.35
56074;BME280;41950;55.840;37.442;2023-01-29T08:39:49;99451.06;;;-1.46;64.24
56074;BME280;41950;55.840;37.442;2023-01-29T08:42:14;99452.34;;;-1.31;64.28
56074;BME280;41950;55.840;37.442;2023-01-29T08:44:40;99447.34;;;-1.28;63.70
56074;BME280;41950;55.840;37.442;2023-01-29T08:47:06;99455.03;;;-1.26;63.73
56074;BME280;41950;55.840;37.442;2023-01-29T08:49:32;99463.34;;;-1.33;63.52
56074;BME280;41950;55.840;37.442;2023-01-29T08:51:57;99460.41;;;-1.47;63.06
56074;BME280;41950;55.840;37.442;2023-01-29T08:54:23;99455.84;;;-1.59;63.57
56074;BME280;41950;55.840;37.442;2023-01-29T08:56:49;99452.56;;;-1.54;63.76
56074;BME280;41950;55.840;37.442;2023-01-29T08:59:15;99441.22;;;-1.66;63.92
56074;BME280;41950;55.840;37.442;2023-01-29T09:01:41;99449.47;;;-1.74;64.29
56074;BME280;41950;55.840;37.442;2023-01-29T09:04:07;99437.34;;;-1.83;64.83
56074;BME280;41950;55.840;37.442;2023-01-29T09:06:33;99452.81;;;-1.75;64.96
56074;BME280;41950;55.840;37.442;2023-01-29T09:08:58;99453.81;;;-1.70;65.08
56074;BME280;41950;55.840;37.442;2023-01-29T09:11:24;99441.91;;;-1.71;65.11
56074;BME280;41950;55.840;37.442;2023-01-29T09:13:50;99449.66;;;-1.67;64.94
56074;BME280;41950;55.840;37.442;2023-01-29T09:16:15;99450.50;;;-1.68;65.00
56074;BME280;41950;55.840;37.442;2023-01-29T09:18:41;99438.78;;;-1.63;65.21
56074;BME280;41950;55.840;37.442;2023-01-29T09:21:07;99438.94;;;-1.57;65.27
56074;BME280;41950;55.840;37.442;2023-01-29T09:23:32;99437.41;;;-1.50;65.03
56074;BME280;41950;55.840;37.442;2023-01-29T09:25:59;99430.72;;;-1.46;65.29
56074;BME280;41950;55.840;37.442;2023-01-29T09:28:24;99422.94;;;-1.52;64.88
56074;BME280;41950;55.840;37.442;2023-01-29T09:30:50;99405.13;;;-1.52;65.08
56074;BME280;41950;55.840;37.442;2023-01-29T09:33:16;99414.19;;;-1.31;64.88
56074;BME280;41950;55.840;37.442;2023-01-29T09:35:42;99407.44;;;-1.29;64.91
56074;BME280;41950;55.840;37.442;2023-01-29T09:38:10;99421.06;;;-1.27;64.61
56074;BME280;41950;55.840;37.442;2023-01-29T09:43:17;99413.06;;;-1.40;65.23
56074;BME280;41950;55.840;37.442;2023-01-29T09:45:52;99415.91;;;-1.30;64.94
56074;BME280;41950;55.840;37.442;2023-01-29T09:48:21;99409.13;;;-1.29;64.81
56074;BME280;41950;55.840;37.442;2023-01-29T09:50:51;99409.69;;;-1.39;65.11
56074;BME280;41950;55.840;37.442;2023-01-29T09:53:45;99399.53;;;-1.38;65.13
56074;BME280;41950;55.840;37.442;2023-01-29T09:56:19;99392.47;;;-1.49;65.24
56074;BME280;41950;55.840;37.442;2023-01-29T09:58:45;99392.56;;;-1.45;64.85
56074;BME280;41950;55.840;37.442;2023-01-29T10:07:21;99345.69;;;-1.54;64.85
56074;BME280;41950;55.840;37.442;2023-01-29T10:15:52;99353.88;;;-1.33;64.40
56074;BME280;41950;55.840;37.442;2023-01-29T10:18:37;99343.22;;;-1.17;64.65
56074;BME280;41950;55.840;37.442;2023-01-29T10:26:54;99275.28;;;-1.18;64.19
56074;BME280;41950;55.840;37.442;2023-01-29T10:29:20;99290.56;;;-1.18;63.96
56074;BME280;41950;55.840;37.442;2023-01-29T10:31:51;99262.28;;;-1.30;64.34
56074;BME280;41950;55.840;37.442;2023-01-29T10:36:57;99247.31;;;-1.16;64.48
56074;BME280;41950;55.840;37.442;2023-01-29T10:39:24;99277.53;;;-0.94;64.40
56074;BME280;41950;55.840;37.442;2023-01-29T10:45:06;99296.09;;;-0.60;64.07
56074;BME280;41950;55.840;37.442;2023-01-29T10:48:12;99310.25;;;-0.73;63.17
56074;BME280;41950;55.840;37.442;2023-01-29T10:53:38;99306.28;;;-1.00;63.94
56074;BME280;41950;55.840;37.442;2023-01-29T10:56:40;99268.34;;;-1.25;64.33
56074;BME280;41950;55.840;37.442;2023-01-29T10:59:17;99273.50;;;-1.22;64.64
56074;BME280;41950;55.840;37.442;2023-01-29T11:01:50;99279.41;;;-1.23;65.02
56074;BME280;41950;55.840;37.442;2023-01-29T11:04:16;99274.47;;;-1.17;65.24
56074;BME280;41950;55.840;37.442;2023-01-29T11:06:42;99271.34;;;-1.05;65.30
56074;BME280;41950;55.840;37.442;2023-01-29T11:11:57;99273.59;;;-0.80;64.44
56074;BME280;41950;55.840;37.442;2023-01-29T11:14:55;99276.16;;;-0.80;64.23
56074;BME280;41950;55.840;37.442;2023-01-29T11:17:24;99278.75;;;-0.77;64.57
56074;BME280;41950;55.840;37.442;2023-01-29T11:19:52;99261.03;;;-0.72;63.93
56074;BME280;41950;55.840;37.442;2023-01-29T11:22:28;99257.31;;;-0.86;64.28
56074;BME280;41950;55.840;37.442;2023-01-29T11:25:17;99261.50;;;-0.88;64.35
56074;BME280;41950;55.840;37.442;2023-01-29T11:27:49;99270.72;;;-0.95;64.50
56074;BME280;41950;55.840;37.442;2023-01-29T11:30:22;99268.19;;;-0.94;64.70
56074;BME280;41950;55.840;37.442;2023-01-29T11:32:53;99254.53;;;-0.97;64.88
56074;BME280;41950;55.840;37.442;2023-01-29T11:35:24;99248.59;;;-0.98;65.00
56074;BME280;41950;55.840;37.442;2023-01-29T11:37:49;99259.53;;;-1.02;65.22
56074;BME280;41950;55.840;37.442;2023-01-29T11:42:45;99245.34;;;-1.30;65.93
56074;BME280;41950;55.840;37.442;2023-01-29T11:45:27;99241.03;;;-1.32;66.39
56074;BME280;41950;55.840;37.442;2023-01-29T11:47:59;99226.53;;;-1.36;66.28
56074;BME280;41950;55.840;37.442;2023-01-29T11:50:27;99216.41;;;-1.33;66.28
56074;BME280;41950;55.840;37.442;2023-01-29T11:52:54;99244.19;;;-1.05;66.22
56074;BME280;41950;55.840;37.442;2023-01-29T11:55:21;99232.22;;;-1.09;66.09
56074;BME280;41950;55.840;37.442;2023-01-29T11:58:17;99235.44;;;-1.16;66.29
56074;BME280;41950;55.840;37.442;2023-01-29T12:00:48;99219.81;;;-1.33;66.61
56074;BME280;41950;55.840;37.442;2023-01-29T12:03:38;99235.78;;;-1.38;67.03
56074;BME280;41950;55.840;37.442;2023-01-29T12:08:43;99208.97;;;-1.62;67.84
56074;BME280;41950;55.840;37.442;2023-01-29T12:11:12;99221.94;;;-1.49;67.92
56074;BME280;41950;55.840;37.442;2023-01-29T12:13:40;99228.69;;;-1.51;68.09
56074;BME280;41950;55.840;37.442;2023-01-29T12:16:16;99227.63;;;-1.61;68.12
56074;BME280;41950;55.840;37.442;2023-01-29T12:24:22;99231.31;;;-1.48;68.62
56074;BME280;41950;55.840;37.442;2023-01-29T12:32:41;99230.34;;;-1.53;68.86
56074;BME280;41950;55.840;37.442;2023-01-29T12:37:47;99232.03;;;-1.54;69.14
56074;BME280;41950;55.840;37.442;2023-01-29T12:40:17;99225.97;;;-1.59;69.43
56074;BME280;41950;55.840;37.442;2023-01-29T12:42:50;99224.22;;;-1.62;69.50
56074;BME280;41950;55.840;37.442;2023-01-29T12:45:22;99231.00;;;-1.62;69.84
56074;BME280;41950;55.840;37.442;2023-01-29T12:47:53;99233.56;;;-1.61;69.97
56074;BME280;41950;55.840;37.442;2023-01-29T12:50:26;99230.25;;;-1.58;69.85
56074;BME280;41950;55.840;37.442;2023-01-29T12:52:58;99232.78;;;-1.58;69.88
56074;BME280;41950;55.840;37.442;2023-01-29T12:55:27;99226.78;;;-1.62;70.03
56074;BME280;41950;55.840;37.442;2023-01-29T12:58:01;99229.09;;;-1.69;70.11
56074;BME280;41950;55.840;37.442;2023-01-29T13:00:31;99234.25;;;-1.66;70.02
56074;BME280;41950;55.840;37.442;2023-01-29T13:03:09;99228.34;;;-1.65;70.15
56074;BME280;41950;55.840;37.442;2023-01-29T13:06:02;99221.69;;;-1.62;70.29
56074;BME280;41950;55.840;37.442;2023-01-29T13:08:42;99180.53;;;-1.80;70.16
56074;BME280;41950;55.840;37.442;2023-01-29T13:11:17;99204.66;;;-1.64;70.46
56074;BME280;41950;55.840;37.442;2023-01-29T13:13:51;99205.66;;;-1.58;70.24
56074;BME280;41950;55.840;37.442;2023-01-29T13:16:22;99202.25;;;-1.58;70.43
56074;BME280;41950;55.840;37.442;2023-01-29T13:18:55;99192.91;;;-1.59;70.44
56074;BME280;41950;55.840;37.442;2023-01-29T13:21:25;99188.63;;;-1.60;70.56
56074;BME280;41950;55.840;37.442;2023-01-29T13:23:59;99202.38;;;-1.52;70.38
56074;BME280;41950;55.840;37.442;2023-01-29T13:26:27;99190.47;;;-1.54;70.66
56074;BME280;41950;55.840;37.442;2023-01-29T13:28:53;99198.03;;;-1.58;70.86
56074;BME280;41950;55.840;37.442;2023-01-29T13:34:24;99195.56;;;-1.53;70.85
56074;BME280;41950;55.840;37.442;2023-01-29T13:36:52;99199.66;;;-1.60;71.00
56074;BME280;41950;55.840;37.442;2023-01-29T13:39:24;99187.78;;;-1.61;71.15
56074;BME280;41950;55.840;37.442;2023-01-29T13:41:54;99190.47;;;-1.54;71.12
56074;BME280;41950;55.840;37.442;2023-01-29T13:46:55;99194.78;;;-1.50;71.12
56074;BME280;41950;55.840;37.442;2023-01-29T13:49:32;99192.97;;;-1.56;71.13
56074;BME280;41950;55.840;37.442;2023-01-29T13:52:14;99170.69;;;-1.65;71.29
56074;BME280;41950;55.840;37.442;2023-01-29T13:54:48;99150.09;;;-1.75;71.43
56074;BME280;41950;55.840;37.442;2023-01-29T13:59:58;99181.03;;;-1.59;71.45
56074;BME280;41950;55.840;37.442;2023-01-29T14:02:26;99176.81;;;-1.58;71.46
56074;BME280;41950;55.840;37.442;2023-01-29T14:08:00;99173.06;;;-1.72;71.61
56074;BME280;41950;55.840;37.442;2023-01-29T14:10:29;99168.78;;;-1.75;71.87
56074;BME280;41950;55.840;37.442;2023-01-29T14:15:44;99154.31;;;-1.77;71.99
56074;BME280;41950;55.840;37.442;2023-01-29T14:26:29;99157.19;;;-1.64;71.48
56074;BME280;41950;55.840;37.442;2023-01-29T14:29:03;99159.59;;;-1.68;71.71
56074;BME280;41950;55.840;37.442;2023-01-29T14:31:41;99160.31;;;-1.74;71.96
56074;BME280;41950;55.840;37.442;2023-01-29T14:34:28;99143.81;;;-1.91;72.14
56074;BME280;41950;55.840;37.442;2023-01-29T14:37:01;99165.44;;;-1.72;72.33
56074;BME280;41950;55.840;37.442;2023-01-29T14:39:36;99159.28;;;-1.82;72.73
56074;BME280;41950;55.840;37.442;2023-01-29T14:42:22;99137.66;;;-1.99;72.93
56074;BME280;41950;55.840;37.442;2023-01-29T14:48:00;99154.28;;;-1.79;73.09
56074;BME280;41950;55.840;37.442;2023-01-29T14:53:39;99150.78;;;-1.82;73.77
56074;BME280;41950;55.840;37.442;2023-01-29T14:56:35;99117.94;;;-2.09;74.95
56074;BME280;41950;55.840;37.442;2023-01-29T14:59:21;99112.94;;;-2.06;75.12
56074;BME280;41950;55.840;37.442;2023-01-29T15:01:54;99154.84;;;-1.91;75.74
56074;BME280;41950;55.840;37.442;2023-01-29T15:04:40;99124.00;;;-2.04;76.52
56074;BME280;41950;55.840;37.442;2023-01-29T15:09:50;99131.66;;;-2.03;77.58
56074;BME280;41950;55.840;37.442;2023-01-29T15:12:20;99160.81;;;-1.90;77.90
56074;BME280;41950;55.840;37.442;2023-01-29T15:17:41;99167.69;;;-1.86;77.87
56074;BME280;41950;55.840;37.442;2023-01-29T15:22:59;99149.50;;;-2.01;78.80
56074;BME280;41950;55.840;37.442;2023-01-29T15:25:33;99139.03;;;-2.13;79.23
56074;BME280;41950;55.840;37.442;2023-01-29T15:28:02;99167.34;;;-1.98;79.39
56074;BME280;41950;55.840;37.442;2023-01-29T15:30:33;99164.00;;;-1.97;79.40